sensor_id;sensor_type;location;lat;lon;timestamp;temperature;humidity
76470;DHT22;65305;52.870;13.660;2022-12-10T00:01:06;8.40;53.20
76470;DHT22;65305;52.870;13.660;2022-12-10T00:03:33;8.40;53.40
76470;DHT22;65305;52.870;13.660;2022-12-10T00:06:03;8.40;53.20
76470;DHT22;65305;52.870;13.660;2022-12-10T00:08:30;8.40;53.30
76470;DHT22;65305;52.870;13.660;2022-12-10T00:10:57;8.40;53.20
76470;DHT22;65305;52.870;13.660;2022-12-10T00:13:23;8.40;53.20
76470;DHT22;65305;52.870;13.660;2022-12-10T00:15:50;8.40;53.20
76470;DHT22;65305;52.870;13.660;2022-12-10T00:18:16;8.40;53.20
76470;DHT22;65305;52.870;13.660;2022-12-10T00:20:43;8.40;53.20
76470;DHT22;65305;52.870;13.660;2022-12-10T00:23:09;8.40;53.30
76470;DHT22;65305;52.870;13.660;2022-12-10T00:25:36;8.50;53.20
76470;DHT22;65305;52.870;13.660;2022-12-10T00:28:02;8.40;53.10
76470;DHT22;65305;52.870;13.660;2022-12-10T00:30:28;8.40;53.10
76470;DHT22;65305;52.870;13.660;2022-12-10T00:32:55;8.40;53.10
76470;DHT22;65305;52.870;13.660;2022-12-10T00:35:21;8.40;53.20
76470;DHT22;65305;52.870;13.660;2022-12-10T00:37:48;8.40;53.10
76470;DHT22;65305;52.870;13.660;2022-12-10T00:40:15;8.50;53.10
76470;DHT22;65305;52.870;13.660;2022-12-10T00:42:41;8.40;53.20
76470;DHT22;65305;52.870;13.660;2022-12-10T00:45:07;8.40;53.10
76470;DHT22;65305;52.870;13.660;2022-12-10T00:47:34;8.50;53.10
76470;DHT22;65305;52.870;13.660;2022-12-10T00:50:00;8.40;53.20
76470;DHT22;65305;52.870;13.660;2022-12-10T00:52:27;8.50;53.20
76470;DHT22;65305;52.870;13.660;2022-12-10T00:54:53;8.50;53.30
76470;DHT22;65305;52.870;13.660;2022-12-10T00:57:20;8.40;53.10
76470;DHT22;65305;52.870;13.660;2022-12-10T00:59:46;8.50;53.10
76470;DHT22;65305;52.870;13.660;2022-12-10T01:02:13;8.40;53.10
76470;DHT22;65305;52.870;13.660;2022-12-10T01:04:39;8.50;53.10
76470;DHT22;65305;52.870;13.660;2022-12-10T01:07:06;8.50;53.10
76470;DHT22;65305;52.870;13.660;2022-12-10T01:09:32;8.50;53.00
76470;DHT22;65305;52.870;13.660;2022-12-10T01:12:00;8.50;53.00
76470;DHT22;65305;52.870;13.660;2022-12-10T01:14:28;8.50;53.00
76470;DHT22;65305;52.870;13.660;2022-12-10T01:16:56;8.50;52.90
76470;DHT22;65305;52.870;13.660;2022-12-10T01:19:22;8.50;53.00
76470;DHT22;65305;52.870;13.660;2022-12-10T01:21:52;8.50;53.00
76470;DHT22;65305;52.870;13.660;2022-12-10T01:24:23;8.50;52.90
76470;DHT22;65305;52.870;13.660;2022-12-10T01:26:49;8.50;52.90
76470;DHT22;65305;52.870;13.660;2022-12-10T01:29:16;8.50;52.90
76470;DHT22;65305;52.870;13.660;2022-12-10T01:31:42;8.50;52.80
76470;DHT22;65305;52.870;13.660;2022-12-10T01:34:09;8.50;52.80
76470;DHT22;65305;52.870;13.660;2022-12-10T01:36:40;8.50;52.80
76470;DHT22;65305;52.870;13.660;2022-12-10T01:39:12;8.50;52.80
76470;DHT22;65305;52.870;13.660;2022-12-10T01:41:41;8.50;52.80
76470;DHT22;65305;52.870;13.660;2022-12-10T01:46:35;8.50;52.80
76470;DHT22;65305;52.870;13.660;2022-12-10T01:49:03;8.50;52.80
76470;DHT22;65305;52.870;13.660;2022-12-10T01:51:32;8.50;52.80
76470;DHT22;65305;52.870;13.660;2022-12-10T01:53:59;8.50;52.80
76470;DHT22;65305;52.870;13.660;2022-12-10T01:56:26;8.50;52.70
76470;DHT22;65305;52.870;13.660;2022-12-10T01:58:54;8.50;52.70
76470;DHT22;65305;52.870;13.660;2022-12-10T02:01:32;8.50;52.80
76470;DHT22;65305;52.870;13.660;2022-12-10T02:04:18;8.50;52.80
76470;DHT22;65305;52.870;13.660;2022-12-10T02:06:59;8.50;52.70
76470;DHT22;65305;52.870;13.660;2022-12-10T02:14:32;8.50;52.70
76470;DHT22;65305;52.870;13.660;2022-12-10T02:17:05;8.50;52.70
76470;DHT22;65305;52.870;13.660;2022-12-10T02:22:05;8.50;52.70
76470;DHT22;65305;52.870;13.660;2022-12-10T02:24:32;8.60;52.70
76470;DHT22;65305;52.870;13.660;2022-12-10T02:27:08;8.50;52.70
76470;DHT22;65305;52.870;13.660;2022-12-10T02:29:37;8.60;52.70
76470;DHT22;65305;52.870;13.660;2022-12-10T02:32:06;8.60;52.70
76470;DHT22;65305;52.870;13.660;2022-12-10T02:34:38;8.50;52.60
76470;DHT22;65305;52.870;13.660;2022-12-10T02:37:08;8.60;52.60
76470;DHT22;65305;52.870;13.660;2022-12-10T02:39:39;8.50;52.70
76470;DHT22;65305;52.870;13.660;2022-12-10T02:42:06;8.60;52.60
76470;DHT22;65305;52.870;13.660;2022-12-10T02:44:33;8.60;52.70
76470;DHT22;65305;52.870;13.660;2022-12-10T02:47:03;8.50;52.60
76470;DHT22;65305;52.870;13.660;2022-12-10T02:49:30;8.60;52.60
76470;DHT22;65305;52.870;13.660;2022-12-10T02:51:56;8.60;52.50
76470;DHT22;65305;52.870;13.660;2022-12-10T02:54:37;8.60;52.50
76470;DHT22;65305;52.870;13.660;2022-12-10T02:57:08;8.60;52.50
76470;DHT22;65305;52.870;13.660;2022-12-10T03:02:08;8.60;52.50
76470;DHT22;65305;52.870;13.660;2022-12-10T03:04:39;8.60;52.50
76470;DHT22;65305;52.870;13.660;2022-12-10T03:07:14;8.60;52.50
76470;DHT22;65305;52.870;13.660;2022-12-10T03:09:50;8.60;52.50
76470;DHT22;65305;52.870;13.660;2022-12-10T03:12:25;8.60;52.50
76470;DHT22;65305;52.870;13.660;2022-12-10T03:14:59;8.60;52.50
76470;DHT22;65305;52.870;13.660;2022-12-10T03:17:27;8.60;52.50
76470;DHT22;65305;52.870;13.660;2022-12-10T03:19:54;8.60;52.50
76470;DHT22;65305;52.870;13.660;2022-12-10T03:22:21;8.60;52.40
76470;DHT22;65305;52.870;13.660;2022-12-10T03:24:48;8.60;52.50
76470;DHT22;65305;52.870;13.660;2022-12-10T03:27:15;8.60;52.40
76470;DHT22;65305;52.870;13.660;2022-12-10T03:29:48;8.60;52.40
76470;DHT22;65305;52.870;13.660;2022-12-10T03:32:16;8.60;52.40
76470;DHT22;65305;52.870;13.660;2022-12-10T03:34:43;8.60;52.50
76470;DHT22;65305;52.870;13.660;2022-12-10T03:37:10;8.60;52.50
76470;DHT22;65305;52.870;13.660;2022-12-10T03:39:37;8.60;52.40
76470;DHT22;65305;52.870;13.660;2022-12-10T03:42:04;8.60;52.40
76470;DHT22;65305;52.870;13.660;2022-12-10T03:44:34;8.60;52.30
76470;DHT22;65305;52.870;13.660;2022-12-10T03:47:02;8.60;52.40
76470;DHT22;65305;52.870;13.660;2022-12-10T03:49:28;8.60;52.40
76470;DHT22;65305;52.870;13.660;2022-12-10T03:51:55;8.60;52.40
76470;DHT22;65305;52.870;13.660;2022-12-10T03:54:21;8.60;52.30
76470;DHT22;65305;52.870;13.660;2022-12-10T03:56:48;8.60;52.40
76470;DHT22;65305;52.870;13.660;2022-12-10T03:59:15;8.60;52.30
76470;DHT22;65305;52.870;13.660;2022-12-10T04:01:41;8.60;52.20
76470;DHT22;65305;52.870;13.660;2022-12-10T04:04:08;8.60;52.20
76470;DHT22;65305;52.870;13.660;2022-12-10T04:06:36;8.60;52.30
76470;DHT22;65305;52.870;13.660;2022-12-10T04:09:03;8.60;52.20
76470;DHT22;65305;52.870;13.660;2022-12-10T04:11:30;8.60;52.20
76470;DHT22;65305;52.870;13.660;2022-12-10T04:13:57;8.60;52.30
76470;DHT22;65305;52.870;13.660;2022-12-10T04:16:41;8.60;52.20
76470;DHT22;65305;52.870;13.660;2022-12-10T04:19:09;8.60;52.20
76470;DHT22;65305;52.870;13.660;2022-12-10T04:21:37;8.60;52.20
76470;DHT22;65305;52.870;13.660;2022-12-10T04:24:23;8.60;52.20
76470;DHT22;65305;52.870;13.660;2022-12-10T04:27:21;8.60;52.20
76470;DHT22;65305;52.870;13.660;2022-12-10T04:29:49;8.60;52.20
76470;DHT22;65305;52.870;13.660;2022-12-10T04:32:16;8.60;52.20
76470;DHT22;65305;52.870;13.660;2022-12-10T04:34:42;8.60;52.10
76470;DHT22;65305;52.870;13.660;2022-12-10T04:37:08;8.60;52.10
76470;DHT22;65305;52.870;13.660;2022-12-10T04:39:37;8.60;52.20
76470;DHT22;65305;52.870;13.660;2022-12-10T04:42:03;8.60;52.20
76470;DHT22;65305;52.870;13.660;2022-12-10T04:44:30;8.60;52.10
76470;DHT22;65305;52.870;13.660;2022-12-10T04:46:56;8.60;52.10
76470;DHT22;65305;52.870;13.660;2022-12-10T04:49:23;8.60;52.20
76470;DHT22;65305;52.870;13.660;2022-12-10T04:51:50;8.60;52.10
76470;DHT22;65305;52.870;13.660;2022-12-10T04:54:18;8.60;52.10
76470;DHT22;65305;52.870;13.660;2022-12-10T04:56:45;8.60;52.10
76470;DHT22;65305;52.870;13.660;2022-12-10T04:59:12;8.60;52.00
76470;DHT22;65305;52.870;13.660;2022-12-10T05:01:38;8.60;52.10
76470;DHT22;65305;52.870;13.660;2022-12-10T05:04:06;8.60;52.00
76470;DHT22;65305;52.870;13.660;2022-12-10T05:06:32;8.60;52.10
76470;DHT22;65305;52.870;13.660;2022-12-10T05:08:59;8.60;52.00
76470;DHT22;65305;52.870;13.660;2022-12-10T05:11:27;8.60;52.00
76470;DHT22;65305;52.870;13.660;2022-12-10T05:13:54;8.60;52.10
76470;DHT22;65305;52.870;13.660;2022-12-10T05:16:22;8.60;52.10
76470;DHT22;65305;52.870;13.660;2022-12-10T05:18:49;8.60;52.00
76470;DHT22;65305;52.870;13.660;2022-12-10T05:21:16;8.60;52.10
76470;DHT22;65305;52.870;13.660;2022-12-10T05:23:46;8.60;52.00
76470;DHT22;65305;52.870;13.660;2022-12-10T05:26:14;8.60;51.90
76470;DHT22;65305;52.870;13.660;2022-12-10T05:28:45;8.60;52.00
76470;DHT22;65305;52.870;13.660;2022-12-10T05:31:16;8.60;51.90
76470;DHT22;65305;52.870;13.660;2022-12-10T05:33:42;8.60;52.00
76470;DHT22;65305;52.870;13.660;2022-12-10T05:36:10;8.60;52.00
76470;DHT22;65305;52.870;13.660;2022-12-10T05:38:37;8.60;52.00
76470;DHT22;65305;52.870;13.660;2022-12-10T05:41:08;8.60;51.90
76470;DHT22;65305;52.870;13.660;2022-12-10T05:43:36;8.60;51.90
76470;DHT22;65305;52.870;13.660;2022-12-10T05:46:05;8.60;51.90
76470;DHT22;65305;52.870;13.660;2022-12-10T05:48:32;8.60;51.90
76470;DHT22;65305;52.870;13.660;2022-12-10T05:51:02;8.60;51.90
76470;DHT22;65305;52.870;13.660;2022-12-10T05:53:29;8.60;51.90
76470;DHT22;65305;52.870;13.660;2022-12-10T05:55:59;8.70;51.80
76470;DHT22;65305;52.870;13.660;2022-12-10T05:58:27;8.60;51.80
76470;DHT22;65305;52.870;13.660;2022-12-10T06:00:54;8.60;51.80
76470;DHT22;65305;52.870;13.660;2022-12-10T06:03:21;8.60;51.90
76470;DHT22;65305;52.870;13.660;2022-12-10T06:05:47;8.60;51.90
76470;DHT22;65305;52.870;13.660;2022-12-10T06:08:14;8.60;51.80
76470;DHT22;65305;52.870;13.660;2022-12-10T06:10:40;8.60;51.80
76470;DHT22;65305;52.870;13.660;2022-12-10T06:13:07;8.60;51.80
76470;DHT22;65305;52.870;13.660;2022-12-10T06:15:33;8.60;51.80
76470;DHT22;65305;52.870;13.660;2022-12-10T06:18:00;8.70;51.80
76470;DHT22;65305;52.870;13.660;2022-12-10T06:20:26;8.70;51.80
76470;DHT22;65305;52.870;13.660;2022-12-10T06:22:53;8.70;51.70
76470;DHT22;65305;52.870;13.660;2022-12-10T06:25:19;8.60;51.80
76470;DHT22;65305;52.870;13.660;2022-12-10T06:27:45;8.60;51.80
76470;DHT22;65305;52.870;13.660;2022-12-10T06:30:12;8.70;51.70
76470;DHT22;65305;52.870;13.660;2022-12-10T06:32:38;8.60;51.80
76470;DHT22;65305;52.870;13.660;2022-12-10T06:35:05;8.60;51.80
76470;DHT22;65305;52.870;13.660;2022-12-10T06:37:32;8.70;51.70
76470;DHT22;65305;52.870;13.660;2022-12-10T06:39:58;8.60;51.80
76470;DHT22;65305;52.870;13.660;2022-12-10T06:42:25;8.70;51.70
76470;DHT22;65305;52.870;13.660;2022-12-10T06:44:51;8.70;51.70
76470;DHT22;65305;52.870;13.660;2022-12-10T06:47:18;8.70;51.70
76470;DHT22;65305;52.870;13.660;2022-12-10T06:49:44;8.70;51.70
76470;DHT22;65305;52.870;13.660;2022-12-10T06:52:11;8.70;51.60
76470;DHT22;65305;52.870;13.660;2022-12-10T06:54:37;8.70;51.70
76470;DHT22;65305;52.870;13.660;2022-12-10T06:57:04;8.70;51.60
76470;DHT22;65305;52.870;13.660;2022-12-10T06:59:30;8.70;51.60
76470;DHT22;65305;52.870;13.660;2022-12-10T07:01:57;8.70;51.60
76470;DHT22;65305;52.870;13.660;2022-12-10T07:04:23;8.70;51.60
76470;DHT22;65305;52.870;13.660;2022-12-10T07:06:50;8.70;51.60
76470;DHT22;65305;52.870;13.660;2022-12-10T07:09:16;8.70;51.60
76470;DHT22;65305;52.870;13.660;2022-12-10T07:11:43;8.70;51.60
76470;DHT22;65305;52.870;13.660;2022-12-10T07:14:16;8.70;51.60
76470;DHT22;65305;52.870;13.660;2022-12-10T07:16:42;8.70;51.60
76470;DHT22;65305;52.870;13.660;2022-12-10T07:19:10;8.70;51.60
76470;DHT22;65305;52.870;13.660;2022-12-10T07:21:37;8.70;51.60
76470;DHT22;65305;52.870;13.660;2022-12-10T07:24:06;8.70;51.60
76470;DHT22;65305;52.870;13.660;2022-12-10T07:26:34;8.70;51.50
76470;DHT22;65305;52.870;13.660;2022-12-10T07:29:01;8.70;51.50
76470;DHT22;65305;52.870;13.660;2022-12-10T07:31:28;8.70;51.60
76470;DHT22;65305;52.870;13.660;2022-12-10T07:33:54;8.70;51.50
76470;DHT22;65305;52.870;13.660;2022-12-10T07:36:21;8.70;51.60
76470;DHT22;65305;52.870;13.660;2022-12-10T07:38:52;8.70;51.50
76470;DHT22;65305;52.870;13.660;2022-12-10T07:41:18;8.80;51.50
76470;DHT22;65305;52.870;13.660;2022-12-10T07:43:45;8.70;51.50
76470;DHT22;65305;52.870;13.660;2022-12-10T07:46:13;8.70;51.50
76470;DHT22;65305;52.870;13.660;2022-12-10T07:48:41;8.80;51.50
76470;DHT22;65305;52.870;13.660;2022-12-10T07:51:07;8.80;51.50
76470;DHT22;65305;52.870;13.660;2022-12-10T07:53:34;8.70;51.40
76470;DHT22;65305;52.870;13.660;2022-12-10T07:56:00;8.80;51.40
76470;DHT22;65305;52.870;13.660;2022-12-10T07:58:27;8.80;51.50
76470;DHT22;65305;52.870;13.660;2022-12-10T08:00:53;8.70;51.40
76470;DHT22;65305;52.870;13.660;2022-12-10T08:03:20;8.70;51.40
76470;DHT22;65305;52.870;13.660;2022-12-10T08:05:46;8.80;51.40
76470;DHT22;65305;52.870;13.660;2022-12-10T08:08:13;8.70;51.40
76470;DHT22;65305;52.870;13.660;2022-12-10T08:10:39;8.80;51.30
76470;DHT22;65305;52.870;13.660;2022-12-10T08:13:06;8.70;51.50
76470;DHT22;65305;52.870;13.660;2022-12-10T08:15:35;8.80;51.40
76470;DHT22;65305;52.870;13.660;2022-12-10T08:18:01;8.70;51.40
76470;DHT22;65305;52.870;13.660;2022-12-10T08:20:27;8.80;51.40
76470;DHT22;65305;52.870;13.660;2022-12-10T08:22:54;8.80;51.30
76470;DHT22;65305;52.870;13.660;2022-12-10T08:25:20;8.80;51.30
76470;DHT22;65305;52.870;13.660;2022-12-10T08:27:47;8.80;51.40
76470;DHT22;65305;52.870;13.660;2022-12-10T08:30:13;8.80;51.20
76470;DHT22;65305;52.870;13.660;2022-12-10T08:32:40;8.80;51.30
76470;DHT22;65305;52.870;13.660;2022-12-10T08:35:06;8.80;51.40
76470;DHT22;65305;52.870;13.660;2022-12-10T08:37:33;8.80;51.30
76470;DHT22;65305;52.870;13.660;2022-12-10T08:39:59;8.80;51.20
76470;DHT22;65305;52.870;13.660;2022-12-10T08:42:26;8.80;51.30
76470;DHT22;65305;52.870;13.660;2022-12-10T08:44:52;8.80;51.20
76470;DHT22;65305;52.870;13.660;2022-12-10T08:47:19;8.80;51.30
76470;DHT22;65305;52.870;13.660;2022-12-10T08:49:45;8.80;51.30
76470;DHT22;65305;52.870;13.660;2022-12-10T08:52:12;8.80;51.20
76470;DHT22;65305;52.870;13.660;2022-12-10T08:54:38;8.80;51.20
76470;DHT22;65305;52.870;13.660;2022-12-10T08:57:05;8.80;51.30
76470;DHT22;65305;52.870;13.660;2022-12-10T08:59:31;8.80;51.30
76470;DHT22;65305;52.870;13.660;2022-12-10T09:01:58;8.80;51.30
76470;DHT22;65305;52.870;13.660;2022-12-10T09:04:24;8.80;51.20
76470;DHT22;65305;52.870;13.660;2022-12-10T09:06:51;8.80;51.20
76470;DHT22;65305;52.870;13.660;2022-12-10T09:09:18;8.80;51.20
76470;DHT22;65305;52.870;13.660;2022-12-10T09:11:44;8.80;51.20
76470;DHT22;65305;52.870;13.660;2022-12-10T09:14:11;8.80;51.20
76470;DHT22;65305;52.870;13.660;2022-12-10T09:16:38;8.80;51.20
76470;DHT22;65305;52.870;13.660;2022-12-10T09:19:08;8.80;51.30
76470;DHT22;65305;52.870;13.660;2022-12-10T09:21:35;8.80;51.10
76470;DHT22;65305;52.870;13.660;2022-12-10T09:24:01;8.80;51.20
76470;DHT22;65305;52.870;13.660;2022-12-10T09:26:28;8.80;51.10
76470;DHT22;65305;52.870;13.660;2022-12-10T09:28:55;8.80;51.10
76470;DHT22;65305;52.870;13.660;2022-12-10T09:31:24;8.80;51.20
76470;DHT22;65305;52.870;13.660;2022-12-10T09:33:51;8.80;51.10
76470;DHT22;65305;52.870;13.660;2022-12-10T09:36:18;8.80;51.10
76470;DHT22;65305;52.870;13.660;2022-12-10T09:38:45;8.80;51.10
76470;DHT22;65305;52.870;13.660;2022-12-10T09:43:45;8.80;51.10
76470;DHT22;65305;52.870;13.660;2022-12-10T09:51:27;8.80;51.10
76470;DHT22;65305;52.870;13.660;2022-12-10T09:53:56;8.80;51.00
76470;DHT22;65305;52.870;13.660;2022-12-10T09:56:28;8.80;51.00
76470;DHT22;65305;52.870;13.660;2022-12-10T09:58:57;8.80;51.00
76470;DHT22;65305;52.870;13.660;2022-12-10T10:01:27;8.80;51.00
76470;DHT22;65305;52.870;13.660;2022-12-10T10:03:53;8.80;51.10
76470;DHT22;65305;52.870;13.660;2022-12-10T10:06:20;8.80;51.00
76470;DHT22;65305;52.870;13.660;2022-12-10T10:08:54;8.80;51.10
76470;DHT22;65305;52.870;13.660;2022-12-10T10:11:22;8.80;50.90
76470;DHT22;65305;52.870;13.660;2022-12-10T10:13:51;8.80;51.00
76470;DHT22;65305;52.870;13.660;2022-12-10T10:16:23;8.80;51.00
76470;DHT22;65305;52.870;13.660;2022-12-10T10:19:02;8.80;51.00
76470;DHT22;65305;52.870;13.660;2022-12-10T10:21:33;8.80;51.00
76470;DHT22;65305;52.870;13.660;2022-12-10T10:24:01;8.80;50.90
76470;DHT22;65305;52.870;13.660;2022-12-10T10:26:28;8.80;50.90
76470;DHT22;65305;52.870;13.660;2022-12-10T10:28:59;8.80;50.90
76470;DHT22;65305;52.870;13.660;2022-12-10T10:31:30;8.80;50.90
76470;DHT22;65305;52.870;13.660;2022-12-10T10:33:57;8.80;51.00
76470;DHT22;65305;52.870;13.660;2022-12-10T10:36:28;8.80;50.90
76470;DHT22;65305;52.870;13.660;2022-12-10T10:38:55;8.80;50.90
76470;DHT22;65305;52.870;13.660;2022-12-10T10:41:23;8.80;50.90
76470;DHT22;65305;52.870;13.660;2022-12-10T10:43:52;8.80;50.90
76470;DHT22;65305;52.870;13.660;2022-12-10T10:46:23;8.80;50.90
76470;DHT22;65305;52.870;13.660;2022-12-10T10:48:50;8.80;51.00
76470;DHT22;65305;52.870;13.660;2022-12-10T10:51:20;8.90;50.90
76470;DHT22;65305;52.870;13.660;2022-12-10T10:53:49;8.80;50.90
76470;DHT22;65305;52.870;13.660;2022-12-10T10:58:49;8.80;50.90
76470;DHT22;65305;52.870;13.660;2022-12-10T11:01:18;8.80;50.80
76470;DHT22;65305;52.870;13.660;2022-12-10T11:03:46;8.90;50.90
76470;DHT22;65305;52.870;13.660;2022-12-10T11:06:13;8.90;50.90
76470;DHT22;65305;52.870;13.660;2022-12-10T11:08:40;8.90;50.90
76470;DHT22;65305;52.870;13.660;2022-12-10T11:11:17;8.90;50.90
76470;DHT22;65305;52.870;13.660;2022-12-10T11:13:45;8.90;50.90
76470;DHT22;65305;52.870;13.660;2022-12-10T11:16:17;8.90;50.80
76470;DHT22;65305;52.870;13.660;2022-12-10T11:18:58;8.90;50.80
76470;DHT22;65305;52.870;13.660;2022-12-10T11:21:31;8.90;50.80
76470;DHT22;65305;52.870;13.660;2022-12-10T11:23:59;8.90;50.80
76470;DHT22;65305;52.870;13.660;2022-12-10T11:39:19;8.90;50.80
76470;DHT22;65305;52.870;13.660;2022-12-10T11:42:00;8.90;50.90
76470;DHT22;65305;52.870;13.660;2022-12-10T11:47:27;8.90;50.80
76470;DHT22;65305;52.870;13.660;2022-12-10T11:55:16;8.90;50.70
76470;DHT22;65305;52.870;13.660;2022-12-10T11:57:54;8.90;50.80
76470;DHT22;65305;52.870;13.660;2022-12-10T12:00:27;8.90;50.70
76470;DHT22;65305;52.870;13.660;2022-12-10T12:03:03;8.90;50.70
76470;DHT22;65305;52.870;13.660;2022-12-10T12:13:29;8.90;50.70
76470;DHT22;65305;52.870;13.660;2022-12-10T12:16:07;8.90;50.60
76470;DHT22;65305;52.870;13.660;2022-12-10T12:19:09;8.90;50.70
76470;DHT22;65305;52.870;13.660;2022-12-10T12:21:27;8.90;50.70
76470;DHT22;65305;52.870;13.660;2022-12-10T12:26:23;8.90;50.70
76470;DHT22;65305;52.870;13.660;2022-12-10T12:28:55;8.90;50.70
76470;DHT22;65305;52.870;13.660;2022-12-10T12:32:02;8.90;50.70
76470;DHT22;65305;52.870;13.660;2022-12-10T12:36:59;8.90;50.60
76470;DHT22;65305;52.870;13.660;2022-12-10T12:47:21;8.90;50.60
76470;DHT22;65305;52.870;13.660;2022-12-10T12:49:50;8.90;50.60
76470;DHT22;65305;52.870;13.660;2022-12-10T12:54:43;8.90;50.60
76470;DHT22;65305;52.870;13.660;2022-12-10T12:57:14;8.90;50.60
76470;DHT22;65305;52.870;13.660;2022-12-10T12:59:54;8.90;50.60
76470;DHT22;65305;52.870;13.660;2022-12-10T13:02:41;8.90;50.70
76470;DHT22;65305;52.870;13.660;2022-12-10T13:05:13;8.90;50.50
76470;DHT22;65305;52.870;13.660;2022-12-10T13:07:40;8.90;50.50
76470;DHT22;65305;52.870;13.660;2022-12-10T13:10:08;8.90;50.70
76470;DHT22;65305;52.870;13.660;2022-12-10T13:12:46;8.90;50.60
76470;DHT22;65305;52.870;13.660;2022-12-10T13:15:20;8.90;50.70
76470;DHT22;65305;52.870;13.660;2022-12-10T13:20:32;8.90;50.60
76470;DHT22;65305;52.870;13.660;2022-12-10T13:25:54;8.90;50.70
76470;DHT22;65305;52.870;13.660;2022-12-10T13:28:38;8.90;50.50
76470;DHT22;65305;52.870;13.660;2022-12-10T13:31:15;8.90;50.60
76470;DHT22;65305;52.870;13.660;2022-12-10T13:33:47;8.90;50.50
76470;DHT22;65305;52.870;13.660;2022-12-10T13:36:24;8.90;50.50
76470;DHT22;65305;52.870;13.660;2022-12-10T13:41:39;9.00;50.50
76470;DHT22;65305;52.870;13.660;2022-12-10T13:49:22;8.90;50.60
76470;DHT22;65305;52.870;13.660;2022-12-10T13:51:59;9.00;50.50
76470;DHT22;65305;52.870;13.660;2022-12-10T14:07:26;9.00;50.50
76470;DHT22;65305;52.870;13.660;2022-12-10T14:09:53;9.00;50.50
76470;DHT22;65305;52.870;13.660;2022-12-10T14:12:30;9.00;50.50
76470;DHT22;65305;52.870;13.660;2022-12-10T14:15:05;9.00;50.50
76470;DHT22;65305;52.870;13.660;2022-12-10T14:17:34;9.00;50.50
76470;DHT22;65305;52.870;13.660;2022-12-10T14:20:05;9.00;50.50
76470;DHT22;65305;52.870;13.660;2022-12-10T14:22:37;9.00;50.50
76470;DHT22;65305;52.870;13.660;2022-12-10T14:25:09;9.00;50.50
76470;DHT22;65305;52.870;13.660;2022-12-10T14:27:37;9.00;50.50
76470;DHT22;65305;52.870;13.660;2022-12-10T14:30:05;9.00;50.60
76470;DHT22;65305;52.870;13.660;2022-12-10T14:32:33;9.00;50.50
76470;DHT22;65305;52.870;13.660;2022-12-10T14:35:00;9.00;50.50
76470;DHT22;65305;52.870;13.660;2022-12-10T14:37:28;9.00;50.50
76470;DHT22;65305;52.870;13.660;2022-12-10T14:39:55;9.00;50.50
76470;DHT22;65305;52.870;13.660;2022-12-10T14:42:22;9.00;50.50
76470;DHT22;65305;52.870;13.660;2022-12-10T14:44:56;9.00;50.50
76470;DHT22;65305;52.870;13.660;2022-12-10T14:47:24;9.00;50.50
76470;DHT22;65305;52.870;13.660;2022-12-10T14:49:52;9.00;50.50
76470;DHT22;65305;52.870;13.660;2022-12-10T14:52:21;9.00;50.40
76470;DHT22;65305;52.870;13.660;2022-12-10T14:54:48;9.00;50.50
76470;DHT22;65305;52.870;13.660;2022-12-10T14:57:21;9.00;50.40
76470;DHT22;65305;52.870;13.660;2022-12-10T14:59:57;9.00;50.40
76470;DHT22;65305;52.870;13.660;2022-12-10T15:02:30;9.00;50.50
76470;DHT22;65305;52.870;13.660;2022-12-10T15:04:58;9.00;50.40
76470;DHT22;65305;52.870;13.660;2022-12-10T15:07:31;9.00;50.40
76470;DHT22;65305;52.870;13.660;2022-12-10T15:10:06;9.00;50.50
76470;DHT22;65305;52.870;13.660;2022-12-10T15:12:47;9.00;50.50
76470;DHT22;65305;52.870;13.660;2022-12-10T15:20:31;9.00;50.40
76470;DHT22;65305;52.870;13.660;2022-12-10T15:25:50;9.00;50.40
76470;DHT22;65305;52.870;13.660;2022-12-10T15:28:36;9.00;50.40
76470;DHT22;65305;52.870;13.660;2022-12-10T15:31:11;9.00;50.50
76470;DHT22;65305;52.870;13.660;2022-12-10T15:33:42;9.00;50.40
76470;DHT22;65305;52.870;13.660;2022-12-10T15:36:20;9.00;50.40
76470;DHT22;65305;52.870;13.660;2022-12-10T15:38:49;9.00;50.50
76470;DHT22;65305;52.870;13.660;2022-12-10T15:49:40;9.00;50.40
76470;DHT22;65305;52.870;13.660;2022-12-10T15:52:16;9.00;50.50
76470;DHT22;65305;52.870;13.660;2022-12-10T15:54:44;9.00;50.40
76470;DHT22;65305;52.870;13.660;2022-12-10T15:57:14;9.00;50.40
76470;DHT22;65305;52.870;13.660;2022-12-10T15:59:42;9.00;50.30
76470;DHT22;65305;52.870;13.660;2022-12-10T16:02:26;9.00;50.30
76470;DHT22;65305;52.870;13.660;2022-12-10T16:04:58;9.00;50.30
76470;DHT22;65305;52.870;13.660;2022-12-10T16:07:24;9.00;50.40
76470;DHT22;65305;52.870;13.660;2022-12-10T16:09:50;9.00;50.40
76470;DHT22;65305;52.870;13.660;2022-12-10T16:12:17;9.00;50.30
76470;DHT22;65305;52.870;13.660;2022-12-10T16:14:47;9.00;50.30
76470;DHT22;65305;52.870;13.660;2022-12-10T16:17:15;9.00;50.40
76470;DHT22;65305;52.870;13.660;2022-12-10T16:19:41;9.00;50.30
76470;DHT22;65305;52.870;13.660;2022-12-10T16:22:07;9.00;50.40
76470;DHT22;65305;52.870;13.660;2022-12-10T16:24:34;9.00;50.40
76470;DHT22;65305;52.870;13.660;2022-12-10T16:27:00;9.00;50.50
76470;DHT22;65305;52.870;13.660;2022-12-10T16:29:27;9.00;50.40
76470;DHT22;65305;52.870;13.660;2022-12-10T16:31:54;9.00;50.40
76470;DHT22;65305;52.870;13.660;2022-12-10T16:34:20;9.00;50.40
76470;DHT22;65305;52.870;13.660;2022-12-10T16:36:47;9.00;50.30
76470;DHT22;65305;52.870;13.660;2022-12-10T16:39:13;9.00;50.40
76470;DHT22;65305;52.870;13.660;2022-12-10T16:41:40;9.00;50.30
76470;DHT22;65305;52.870;13.660;2022-12-10T16:44:07;9.00;50.40
76470;DHT22;65305;52.870;13.660;2022-12-10T16:46:34;9.00;50.40
76470;DHT22;65305;52.870;13.660;2022-12-10T16:49:00;9.00;50.30
76470;DHT22;65305;52.870;13.660;2022-12-10T16:51:26;9.00;50.40
76470;DHT22;65305;52.870;13.660;2022-12-10T16:53:56;9.00;50.30
76470;DHT22;65305;52.870;13.660;2022-12-10T16:56:23;9.00;50.30
76470;DHT22;65305;52.870;13.660;2022-12-10T16:58:49;9.00;50.30
76470;DHT22;65305;52.870;13.660;2022-12-10T17:01:24;9.00;50.30
76470;DHT22;65305;52.870;13.660;2022-12-10T17:03:51;9.00;50.30
76470;DHT22;65305;52.870;13.660;2022-12-10T17:06:17;9.00;50.30
76470;DHT22;65305;52.870;13.660;2022-12-10T17:08:44;9.00;50.20
76470;DHT22;65305;52.870;13.660;2022-12-10T17:11:14;9.00;50.30
76470;DHT22;65305;52.870;13.660;2022-12-10T17:14:00;9.00;50.30
76470;DHT22;65305;52.870;13.660;2022-12-10T17:16:27;9.00;50.30
76470;DHT22;65305;52.870;13.660;2022-12-10T17:18:53;9.00;50.20
76470;DHT22;65305;52.870;13.660;2022-12-10T17:21:19;9.10;50.30
76470;DHT22;65305;52.870;13.660;2022-12-10T17:23:47;9.00;50.20
76470;DHT22;65305;52.870;13.660;2022-12-10T17:26:21;9.00;50.20
76470;DHT22;65305;52.870;13.660;2022-12-10T17:28:50;9.00;50.30
76470;DHT22;65305;52.870;13.660;2022-12-10T17:31:17;9.00;50.30